createdAt,value
2023-03-31T00:00:10.144Z,28.47
2023-03-31T00:01:10.982Z,27.61
2023-03-31T00:02:10.141Z,25.56
2023-03-31T00:03:10.430Z,25.20
2023-03-31T00:04:10.386Z,25.91
2023-03-31T00:05:10.144Z,26.29
2023-03-31T00:06:10.147Z,27.59
2023-03-31T00:07:10.158Z,25.00
2023-03-31T00:08:10.172Z,26.95
2023-03-31T00:09:11.608Z,26.03
2023-03-31T00:10:17.954Z,27.60
2023-03-31T00:11:11.171Z,27.77
2023-03-31T00:12:10.164Z,27.99
2023-03-31T00:13:10.171Z,26.85
2023-03-31T00:14:10.193Z,27.40
2023-03-31T00:15:10.219Z,27.40
2023-03-31T00:16:10.546Z,26.34
2023-03-31T00:17:10.176Z,29.39
2023-03-31T00:18:10.236Z,26.50
2023-03-31T00:19:10.231Z,26.18
2023-03-31T00:20:10.201Z,27.96
2023-03-31T00:21:10.200Z,25.95
2023-03-31T00:22:10.206Z,30.57
2023-03-31T00:23:10.210Z,28.91
2023-03-31T00:24:10.214Z,25.47
2023-03-31T00:25:10.217Z,27.13
2023-03-31T00:26:10.235Z,26.29
2023-03-31T00:27:10.237Z,26.49
2023-03-31T00:28:10.233Z,26.47
2023-03-31T00:29:10.249Z,27.81
2023-03-31T00:30:10.253Z,25.00
2023-03-31T00:31:10.240Z,27.70
2023-03-31T00:32:10.385Z,29.16
2023-03-31T00:33:10.346Z,25.52
2023-03-31T00:34:10.303Z,29.75
2023-03-31T00:35:10.316Z,25.73
2023-03-31T00:36:10.282Z,27.24
2023-03-31T00:37:10.307Z,28.02
2023-03-31T00:38:10.252Z,26.37
2023-03-31T00:39:10.267Z,25.74
2023-03-31T00:40:10.271Z,28.19
2023-03-31T00:41:10.274Z,28.03
2023-03-31T00:42:10.355Z,27.38
2023-03-31T00:43:10.420Z,26.65
2023-03-31T00:44:10.298Z,28.57
2023-03-31T00:45:10.306Z,25.94
2023-03-31T00:46:10.360Z,26.20
2023-03-31T00:47:10.321Z,25.79
2023-03-31T00:48:10.436Z,28.55
2023-03-31T00:49:10.344Z,28.85
2023-03-31T00:50:10.345Z,25.00
2023-03-31T00:51:10.390Z,26.84
2023-03-31T00:52:10.364Z,26.96
2023-03-31T00:53:10.371Z,27.74
2023-03-31T00:54:10.466Z,26.39
2023-03-31T00:55:10.406Z,27.36
2023-03-31T00:56:10.397Z,27.50
2023-03-31T00:57:10.484Z,28.61
2023-03-31T00:58:10.508Z,26.44
2023-03-31T00:59:10.508Z,27.98
2023-03-31T01:00:10.431Z,29.30
2023-03-31T01:01:10.448Z,28.84
2023-03-31T01:02:10.450Z,26.90
2023-03-31T01:03:10.598Z,28.83
2023-03-31T01:04:10.540Z,25.79
2023-03-31T01:05:10.587Z,25.73
2023-03-31T01:06:10.569Z,27.01
2023-03-31T01:07:10.568Z,25.64
2023-03-31T01:08:10.587Z,26.97
2023-03-31T01:09:10.607Z,28.17
2023-03-31T01:10:10.651Z,27.24
2023-03-31T01:11:10.667Z,26.64
2023-03-31T01:12:10.683Z,26.37
2023-03-31T01:13:10.719Z,28.18
2023-03-31T01:14:10.733Z,26.99
2023-03-31T01:15:10.743Z,28.75
2023-03-31T01:16:10.830Z,27.79
2023-03-31T01:17:10.876Z,29.46
2023-03-31T01:18:10.874Z,27.69
2023-03-31T01:19:10.841Z,29.45
2023-03-31T01:20:10.851Z,27.03
2023-03-31T01:21:10.868Z,25.68
2023-03-31T01:22:10.884Z,27.77
2023-03-31T01:23:11.163Z,27.34
2023-03-31T01:24:10.932Z,26.77
2023-03-31T01:25:10.949Z,27.82
2023-03-31T01:26:10.971Z,26.21
2023-03-31T01:27:10.984Z,27.27
2023-03-31T01:28:11.014Z,26.28
2023-03-31T01:29:11.015Z,28.12
2023-03-31T01:30:11.043Z,26.01
2023-03-31T01:31:11.116Z,28.19
2023-03-31T01:32:11.063Z,29.21
2023-03-31T01:33:11.096Z,28.39
2023-03-31T01:34:11.074Z,29.39
2023-03-31T01:35:11.105Z,26.51
2023-03-31T01:36:11.125Z,28.96
2023-03-31T01:37:11.124Z,26.92
2023-03-31T01:38:11.134Z,27.50
2023-03-31T01:39:11.137Z,27.31
2023-03-31T01:40:11.154Z,26.29
2023-03-31T01:41:11.154Z,27.13
2023-03-31T01:42:11.184Z,26.78
2023-03-31T01:43:11.162Z,27.43
2023-03-31T01:44:11.178Z,25.91
2023-03-31T01:45:11.284Z,28.02
2023-03-31T01:46:11.238Z,27.95
2023-03-31T01:47:11.211Z,26.82
2023-03-31T01:48:11.224Z,29.34
2023-03-31T01:49:11.239Z,26.40
2023-03-31T01:50:11.319Z,26.34
2023-03-31T01:51:11.272Z,28.98
2023-03-31T01:52:11.289Z,27.38
2023-03-31T01:53:11.290Z,27.45
2023-03-31T01:54:11.293Z,26.67
2023-03-31T01:55:11.323Z,28.04
2023-03-31T01:56:11.319Z,26.74
2023-03-31T01:57:11.324Z,28.16
2023-03-31T01:58:11.315Z,26.92
2023-03-31T01:59:11.344Z,27.71
2023-03-31T02:00:11.351Z,26.93
2023-03-31T02:01:11.367Z,26.76
2023-03-31T02:02:11.452Z,28.27
2023-03-31T02:03:11.473Z,27.62
2023-03-31T02:04:11.384Z,26.76
2023-03-31T02:05:11.477Z,28.97
2023-03-31T02:06:11.412Z,27.01
2023-03-31T02:07:11.408Z,28.11
2023-03-31T02:08:11.429Z,27.16
2023-03-31T02:09:11.448Z,28.75
2023-03-31T02:10:11.424Z,25.00
2023-03-31T02:11:11.445Z,29.10
2023-03-31T02:12:11.452Z,28.28
2023-03-31T02:13:11.451Z,26.19
2023-03-31T02:14:11.457Z,28.80
2023-03-31T02:15:11.482Z,28.93
2023-03-31T02:16:11.540Z,27.41
2023-03-31T02:17:11.510Z,27.29
2023-03-31T02:18:11.688Z,28.52
2023-03-31T02:19:11.535Z,26.43
2023-03-31T02:20:11.555Z,28.93
2023-03-31T02:21:11.569Z,27.09
2023-03-31T02:22:11.583Z,27.70
2023-03-31T02:23:11.603Z,27.10
2023-03-31T02:24:11.630Z,27.89
2023-03-31T02:25:11.646Z,29.60
2023-03-31T02:26:11.645Z,28.33
2023-03-31T02:27:11.653Z,27.66
2023-03-31T02:28:11.663Z,26.23
2023-03-31T02:29:11.649Z,26.00
2023-03-31T02:30:11.712Z,27.36
2023-03-31T02:31:11.708Z,26.06
2023-03-31T02:32:11.698Z,26.20
2023-03-31T02:33:11.706Z,27.06
2023-03-31T02:34:11.722Z,27.85
2023-03-31T02:35:11.718Z,28.41
2023-03-31T02:36:11.830Z,28.42
2023-03-31T02:37:11.733Z,29.48
2023-03-31T02:38:11.731Z,28.97
2023-03-31T02:39:12.541Z,28.80
2023-03-31T02:40:11.754Z,29.50
2023-03-31T02:41:11.772Z,28.22
2023-03-31T02:42:11.801Z,29.84
2023-03-31T02:43:11.795Z,26.78
2023-03-31T02:44:11.789Z,30.55
2023-03-31T02:45:11.895Z,28.08
2023-03-31T02:46:11.965Z,27.92
2023-03-31T02:47:11.825Z,28.15
2023-03-31T02:48:11.848Z,29.84
2023-03-31T02:49:11.897Z,28.44
2023-03-31T02:50:11.887Z,27.01
2023-03-31T02:51:11.902Z,25.04
2023-03-31T02:52:11.906Z,29.35
2023-03-31T02:53:11.941Z,28.75
2023-03-31T02:54:11.930Z,26.88
2023-03-31T02:55:11.948Z,25.90
2023-03-31T02:56:11.944Z,27.45
2023-03-31T02:57:11.982Z,27.07
2023-03-31T02:58:11.972Z,26.27
2023-03-31T02:59:11.986Z,25.26
2023-03-31T03:00:11.989Z,29.23
2023-03-31T03:01:12.054Z,27.17
2023-03-31T03:02:12.090Z,26.04
2023-03-31T03:03:12.180Z,26.59
2023-03-31T03:04:12.045Z,29.32
2023-03-31T03:05:12.051Z,26.40
2023-03-31T03:06:12.080Z,25.40
2023-03-31T03:07:12.107Z,28.65
2023-03-31T03:08:12.125Z,28.70
2023-03-31T03:09:12.117Z,25.50
2023-03-31T03:10:12.140Z,30.91
2023-03-31T03:11:12.152Z,29.28
2023-03-31T03:12:12.150Z,26.72
2023-03-31T03:13:12.163Z,27.54
2023-03-31T03:14:12.188Z,26.80
2023-03-31T03:15:12.192Z,26.81
2023-03-31T03:16:12.314Z,26.97
2023-03-31T03:17:12.209Z,28.69
2023-03-31T03:18:12.283Z,28.03
2023-03-31T03:19:12.215Z,26.88
2023-03-31T03:20:12.226Z,26.62
2023-03-31T03:21:12.253Z,26.70
2023-03-31T03:22:12.569Z,27.02
2023-03-31T03:23:12.282Z,28.69
2023-03-31T03:24:12.289Z,27.04
2023-03-31T03:25:12.303Z,25.44
2023-03-31T03:26:12.316Z,26.08
2023-03-31T03:27:12.576Z,26.34
2023-03-31T03:28:12.344Z,25.51
2023-03-31T03:29:12.347Z,28.36
2023-03-31T03:30:12.371Z,27.89
2023-03-31T03:31:12.374Z,27.65
2023-03-31T03:32:12.356Z,27.22
2023-03-31T03:33:13.546Z,27.82
2023-03-31T03:34:12.470Z,30.07
2023-03-31T03:35:12.483Z,26.87
2023-03-31T03:36:13.533Z,27.06
2023-03-31T03:37:12.478Z,27.50
2023-03-31T03:38:12.479Z,27.57
2023-03-31T03:39:13.066Z,26.79
2023-03-31T03:40:12.498Z,26.90
2023-03-31T03:41:12.461Z,27.58
2023-03-31T03:42:12.487Z,28.39
2023-03-31T03:43:12.453Z,27.56
2023-03-31T03:44:12.451Z,26.54
2023-03-31T03:45:12.439Z,28.09
2023-03-31T03:46:12.443Z,27.61
2023-03-31T03:47:12.433Z,28.23
2023-03-31T03:48:12.423Z,27.79
2023-03-31T03:49:12.413Z,26.67
2023-03-31T03:50:14.024Z,27.97
2023-03-31T03:51:12.413Z,29.52
2023-03-31T03:52:12.425Z,26.83
2023-03-31T03:53:12.412Z,25.75
2023-03-31T03:54:12.408Z,29.20
2023-03-31T03:55:12.402Z,25.69
2023-03-31T03:56:12.407Z,28.50
2023-03-31T03:57:12.431Z,26.71
2023-03-31T03:58:12.399Z,29.12
2023-03-31T03:59:12.405Z,26.50
2023-03-31T04:00:12.665Z,27.72
2023-03-31T04:01:12.385Z,26.86
2023-03-31T04:02:12.430Z,28.35
2023-03-31T04:03:12.419Z,27.66
2023-03-31T04:04:12.388Z,28.30
2023-03-31T04:05:12.464Z,26.53
2023-03-31T04:06:12.382Z,27.83
2023-03-31T04:07:12.391Z,27.24
2023-03-31T04:08:12.426Z,28.22
2023-03-31T04:09:12.379Z,25.31
2023-03-31T04:10:12.372Z,28.30
2023-03-31T04:11:12.384Z,28.52
2023-03-31T04:12:12.401Z,28.36
2023-03-31T04:13:12.373Z,27.22
2023-03-31T04:14:12.367Z,27.14
2023-03-31T04:15:12.372Z,26.65
2023-03-31T04:16:12.443Z,27.58
2023-03-31T04:17:12.370Z,26.36
2023-03-31T04:18:14.654Z,26.92
2023-03-31T04:19:12.371Z,27.12
2023-03-31T04:20:12.583Z,27.75
2023-03-31T04:21:12.476Z,27.78
2023-03-31T04:22:13.073Z,27.97
2023-03-31T04:23:12.371Z,28.45
2023-03-31T04:24:12.352Z,28.00
2023-03-31T04:25:12.590Z,27.99
2023-03-31T04:26:12.354Z,26.50
2023-03-31T04:27:12.356Z,30.14
2023-03-31T04:28:12.354Z,26.81
2023-03-31T04:29:12.360Z,27.90
2023-03-31T04:30:12.348Z,27.50
2023-03-31T04:31:12.366Z,25.62
2023-03-31T04:32:12.421Z,27.16
2023-03-31T04:33:12.364Z,25.00
2023-03-31T04:34:12.351Z,27.41
2023-03-31T04:35:12.357Z,28.36
2023-03-31T04:36:12.393Z,28.22
2023-03-31T04:37:12.364Z,29.23
2023-03-31T04:38:12.434Z,29.95
2023-03-31T04:39:12.360Z,30.14
2023-03-31T04:40:12.352Z,28.00
2023-03-31T04:41:12.357Z,29.93
2023-03-31T04:42:12.368Z,27.53
2023-03-31T04:43:12.362Z,29.38
2023-03-31T04:44:13.085Z,27.84
2023-03-31T04:45:12.355Z,27.54
2023-03-31T04:46:12.378Z,25.27
2023-03-31T04:47:12.358Z,27.29
2023-03-31T04:48:12.364Z,30.53
2023-03-31T04:49:12.377Z,28.92
2023-03-31T04:50:15.320Z,25.82
2023-03-31T04:51:13.375Z,26.29
2023-03-31T04:52:12.378Z,26.82
2023-03-31T04:53:12.374Z,27.12
2023-03-31T04:54:12.422Z,29.32
2023-03-31T04:55:12.379Z,28.02
2023-03-31T04:56:12.383Z,29.74
2023-03-31T04:57:12.420Z,28.65
2023-03-31T04:58:12.368Z,29.07
2023-03-31T04:59:12.372Z,28.90
2023-03-31T05:00:12.374Z,27.31
2023-03-31T05:01:12.393Z,27.31
2023-03-31T05:02:12.377Z,30.84
2023-03-31T05:03:12.526Z,28.33
2023-03-31T05:04:12.359Z,27.76
2023-03-31T05:05:12.355Z,27.12
2023-03-31T05:06:12.358Z,25.59
2023-03-31T05:07:12.351Z,27.37
2023-03-31T05:08:13.105Z,25.46
2023-03-31T05:09:12.338Z,27.78
2023-03-31T05:10:12.344Z,28.85
2023-03-31T05:11:12.362Z,27.68
2023-03-31T05:12:12.348Z,27.96
2023-03-31T05:13:12.347Z,27.85
2023-03-31T05:14:12.343Z,25.43
2023-03-31T05:15:12.343Z,26.90
2023-03-31T05:16:12.493Z,25.61
2023-03-31T05:17:12.341Z,26.77
2023-03-31T05:18:12.359Z,25.47
2023-03-31T05:19:12.356Z,27.18
2023-03-31T05:20:12.353Z,26.92
2023-03-31T05:21:12.381Z,26.86
2023-03-31T05:22:12.391Z,25.23
2023-03-31T05:23:12.400Z,25.00
2023-03-31T05:24:12.482Z,25.57
2023-03-31T05:25:12.414Z,28.28
2023-03-31T05:26:12.422Z,29.76
2023-03-31T05:27:12.454Z,28.63
2023-03-31T05:28:12.450Z,38.39
2023-03-31T05:29:12.477Z,41.33
2023-03-31T05:30:12.499Z,47.87
2023-03-31T05:31:12.663Z,56.73
2023-03-31T05:32:12.624Z,59.88
2023-03-31T05:33:12.676Z,70.70
2023-03-31T05:34:12.723Z,75.00
2023-03-31T05:35:12.762Z,94.06
2023-03-31T05:36:12.880Z,97.43
2023-03-31T05:37:12.819Z,101.34
2023-03-31T05:38:12.859Z,112.70
2023-03-31T05:39:12.868Z,121.46
2023-03-31T05:40:12.883Z,133.89
2023-03-31T05:41:12.910Z,139.65
2023-03-31T05:42:12.936Z,147.64
2023-03-31T05:43:12.960Z,154.30
2023-03-31T05:44:12.972Z,159.54
2023-03-31T05:45:12.982Z,167.07
2023-03-31T05:46:13.029Z,175.52
2023-03-31T05:47:13.011Z,184.01
2023-03-31T05:48:13.014Z,193.61
2023-03-31T05:49:13.037Z,200.05
2023-03-31T05:50:14.789Z,208.84
2023-03-31T05:51:13.040Z,212.67
2023-03-31T05:52:13.069Z,219.50
2023-03-31T05:53:13.058Z,231.25
2023-03-31T05:54:13.075Z,237.10
2023-03-31T05:55:13.069Z,241.95
2023-03-31T05:56:13.075Z,250.00
2023-03-31T05:57:13.126Z,249.98
2023-03-31T05:58:13.090Z,250.00
2023-03-31T05:59:15.025Z,250.00
2023-03-31T06:00:13.111Z,249.07
2023-03-31T06:01:13.197Z,249.28
2023-03-31T06:02:13.101Z,250.00
2023-03-31T06:03:13.129Z,248.29
2023-03-31T06:04:13.108Z,249.62
2023-03-31T06:05:13.026Z,248.35
2023-03-31T06:06:13.078Z,250.00
2023-03-31T06:07:12.999Z,249.84
2023-03-31T06:08:12.985Z,250.00
2023-03-31T06:09:12.977Z,250.00
2023-03-31T06:10:12.962Z,250.00
2023-03-31T06:11:12.964Z,249.46
2023-03-31T06:12:12.951Z,250.00
2023-03-31T06:13:12.944Z,250.00
2023-03-31T06:14:12.962Z,249.24
2023-03-31T06:15:12.982Z,250.00
2023-03-31T06:16:13.070Z,248.74
2023-03-31T06:17:12.993Z,249.84
2023-03-31T06:18:13.019Z,249.45
2023-03-31T06:19:13.040Z,250.00
2023-03-31T06:20:24.608Z,250.00
2023-03-31T06:21:14.042Z,250.21
2023-03-31T06:22:13.034Z,252.40
2023-03-31T06:23:13.067Z,254.27
2023-03-31T06:24:12.989Z,255.79
2023-03-31T06:25:12.974Z,258.20
2023-03-31T06:26:12.963Z,248.25
2023-03-31T06:27:13.952Z,248.47
2023-03-31T06:28:13.864Z,248.74
2023-03-31T06:29:12.902Z,250.33
2023-03-31T06:30:12.916Z,251.84
2023-03-31T06:31:12.949Z,256.39
2023-03-31T06:32:12.848Z,246.89
2023-03-31T06:33:12.841Z,248.70
2023-03-31T06:34:12.831Z,250.00
2023-03-31T06:35:12.809Z,248.28
2023-03-31T06:36:12.869Z,247.21
2023-03-31T06:37:12.807Z,249.87
2023-03-31T06:38:13.721Z,250.00
2023-03-31T06:39:12.886Z,248.75
2023-03-31T06:40:12.931Z,247.38
2023-03-31T06:41:13.226Z,248.42
2023-03-31T06:42:12.993Z,248.96
2023-03-31T06:43:13.023Z,249.46
2023-03-31T06:44:13.052Z,249.10
2023-03-31T06:45:13.131Z,248.27
2023-03-31T06:46:13.257Z,248.76
2023-03-31T06:47:13.150Z,248.73
2023-03-31T06:48:13.644Z,248.10
2023-03-31T06:49:13.210Z,250.00
2023-03-31T06:50:14.139Z,249.35
2023-03-31T06:51:13.318Z,248.41
2023-03-31T06:52:13.293Z,249.71
2023-03-31T06:53:13.334Z,248.94
2023-03-31T06:54:13.379Z,246.80
2023-03-31T06:55:13.523Z,246.89
2023-03-31T06:56:13.436Z,249.78
2023-03-31T06:57:13.469Z,249.25
2023-03-31T06:58:13.509Z,248.70
2023-03-31T06:59:13.527Z,248.95
2023-03-31T07:00:13.548Z,248.69
2023-03-31T07:01:13.656Z,249.62
2023-03-31T07:02:13.614Z,247.86
2023-03-31T07:03:13.857Z,249.55
2023-03-31T07:04:13.658Z,250.05
2023-03-31T07:05:13.686Z,248.37
2023-03-31T07:06:13.705Z,248.76
2023-03-31T07:07:13.734Z,250.00
2023-03-31T07:08:13.754Z,248.48
2023-03-31T07:09:13.784Z,248.65
2023-03-31T07:10:13.872Z,250.00
2023-03-31T07:11:13.834Z,248.80
2023-03-31T07:12:13.864Z,247.97
2023-03-31T07:13:13.953Z,249.68
2023-03-31T07:14:13.916Z,250.00
2023-03-31T07:15:13.940Z,248.30
2023-03-31T07:16:13.992Z,247.77
2023-03-31T07:17:14.018Z,245.29
2023-03-31T07:18:14.058Z,247.00
2023-03-31T07:19:14.108Z,232.98
2023-03-31T07:20:14.113Z,195.78
2023-03-31T07:21:14.309Z,209.57
2023-03-31T07:22:14.133Z,217.70
2023-03-31T07:23:14.154Z,193.13
2023-03-31T07:24:14.248Z,193.88
2023-03-31T07:25:14.219Z,195.36
2023-03-31T07:26:14.218Z,187.69
2023-03-31T07:27:14.239Z,181.09
2023-03-31T07:28:14.666Z,176.69
2023-03-31T07:29:14.228Z,175.58
2023-03-31T07:30:15.072Z,173.01
2023-03-31T07:31:14.219Z,172.97
2023-03-31T07:32:14.319Z,170.81
2023-03-31T07:33:14.337Z,172.99
2023-03-31T07:34:14.335Z,172.86
2023-03-31T07:35:14.386Z,174.41
2023-03-31T07:36:14.558Z,174.44
2023-03-31T07:37:15.150Z,176.75
2023-03-31T07:38:14.505Z,175.72
2023-03-31T07:39:14.547Z,176.50
2023-03-31T07:40:14.617Z,177.70
2023-03-31T07:41:15.571Z,178.01
2023-03-31T07:42:14.682Z,181.83
2023-03-31T07:43:14.717Z,180.46
2023-03-31T07:44:14.756Z,182.50
2023-03-31T07:45:14.798Z,183.71
2023-03-31T07:46:14.868Z,184.32
2023-03-31T07:47:14.928Z,187.64
2023-03-31T07:48:15.036Z,186.21
2023-03-31T07:49:14.935Z,187.29
2023-03-31T07:50:14.970Z,189.21
2023-03-31T07:51:14.972Z,189.05
2023-03-31T07:52:15.013Z,193.06
2023-03-31T07:53:15.013Z,191.69
2023-03-31T07:54:15.044Z,193.74
2023-03-31T07:55:15.068Z,194.40
2023-03-31T07:56:15.072Z,195.07
2023-03-31T07:57:15.085Z,197.29
2023-03-31T07:58:15.113Z,197.89
2023-03-31T07:59:15.113Z,198.76
2023-03-31T08:00:15.134Z,200.00
2023-03-31T08:01:15.130Z,202.13
2023-03-31T08:02:15.185Z,204.04
2023-03-31T08:03:15.182Z,204.93
2023-03-31T08:04:15.226Z,204.68
2023-03-31T08:05:15.177Z,208.19
2023-03-31T08:06:15.158Z,208.28
2023-03-31T08:07:15.229Z,209.22
2023-03-31T08:08:15.153Z,209.87
2023-03-31T08:09:15.151Z,210.66
2023-03-31T08:10:15.211Z,213.01
2023-03-31T08:11:15.150Z,211.36
2023-03-31T08:12:15.170Z,210.75
2023-03-31T08:13:15.192Z,210.31
2023-03-31T08:14:15.204Z,212.07
2023-03-31T08:15:15.251Z,212.46
2023-03-31T08:16:16.326Z,211.88
2023-03-31T08:17:15.257Z,209.55
2023-03-31T08:18:17.285Z,206.84
2023-03-31T08:19:15.282Z,208.02
2023-03-31T08:20:15.308Z,207.06
2023-03-31T08:21:15.361Z,208.75
2023-03-31T08:22:18.177Z,206.04
2023-03-31T08:23:15.361Z,208.45
2023-03-31T08:24:16.298Z,209.62
2023-03-31T08:25:15.357Z,210.71
2023-03-31T08:26:17.899Z,207.71
2023-03-31T08:27:15.265Z,207.83
2023-03-31T08:28:15.411Z,208.18
2023-03-31T08:29:15.286Z,207.83
2023-03-31T08:30:15.369Z,207.61
2023-03-31T08:31:15.233Z,208.58
2023-03-31T08:32:15.380Z,206.92
2023-03-31T08:33:15.140Z,207.07
2023-03-31T08:34:15.109Z,208.11
2023-03-31T08:35:15.090Z,205.60
2023-03-31T08:36:15.092Z,206.35
2023-03-31T08:37:15.293Z,205.83
2023-03-31T08:38:15.014Z,204.07
2023-03-31T08:39:15.057Z,206.02
2023-03-31T08:40:14.984Z,204.75
2023-03-31T08:41:15.132Z,204.70
2023-03-31T08:42:16.201Z,202.71
2023-03-31T08:43:15.207Z,203.26
2023-03-31T08:44:14.899Z,203.53
2023-03-31T08:45:14.881Z,202.30
2023-03-31T08:46:14.894Z,202.14
2023-03-31T08:47:14.837Z,202.49
2023-03-31T08:48:17.680Z,201.67
2023-03-31T08:49:15.675Z,203.31
2023-03-31T08:50:14.938Z,202.95
2023-03-31T08:51:14.827Z,203.39
2023-03-31T08:52:14.735Z,201.57
2023-03-31T08:53:14.778Z,202.05
2023-03-31T08:54:15.239Z,199.44
2023-03-31T08:55:14.735Z,200.79
2023-03-31T08:56:15.606Z,201.07
2023-03-31T08:57:14.672Z,200.67
2023-03-31T08:58:14.733Z,200.48
2023-03-31T08:59:14.779Z,199.32
2023-03-31T09:00:14.602Z,198.95
2023-03-31T09:01:14.722Z,198.86
2023-03-31T09:02:14.665Z,197.70
2023-03-31T09:03:14.908Z,197.40
2023-03-31T09:04:14.589Z,196.05
2023-03-31T09:05:14.526Z,196.96
2023-03-31T09:06:14.774Z,197.61
2023-03-31T09:07:14.552Z,194.95
2023-03-31T09:08:14.628Z,196.55
2023-03-31T09:09:14.468Z,196.41
2023-03-31T09:10:14.851Z,196.04
2023-03-31T09:11:15.196Z,195.54
2023-03-31T09:12:14.386Z,194.71
2023-03-31T09:13:15.138Z,195.41
2023-03-31T09:14:14.396Z,193.63
2023-03-31T09:15:16.078Z,194.79
2023-03-31T09:16:16.292Z,193.78
2023-03-31T09:17:14.430Z,193.13
2023-03-31T09:18:14.349Z,192.34
2023-03-31T09:19:14.368Z,191.12
2023-03-31T09:20:14.424Z,191.99
2023-03-31T09:21:15.400Z,192.00
2023-03-31T09:22:14.384Z,191.36
2023-03-31T09:23:14.507Z,191.73
2023-03-31T09:24:14.480Z,191.80
2023-03-31T09:25:14.384Z,191.81
2023-03-31T09:26:14.461Z,192.43
2023-03-31T09:27:14.285Z,192.85
2023-03-31T09:28:14.241Z,193.88
2023-03-31T09:29:14.213Z,192.38
2023-03-31T09:30:15.216Z,191.77
2023-03-31T09:31:14.328Z,195.87
2023-03-31T09:32:14.321Z,195.10
2023-03-31T09:33:14.419Z,198.56
2023-03-31T09:34:14.358Z,199.54
2023-03-31T09:35:14.347Z,199.72
2023-03-31T09:36:14.352Z,200.17
2023-03-31T09:37:14.294Z,201.04
2023-03-31T09:38:14.414Z,202.68
2023-03-31T09:39:14.249Z,206.31
2023-03-31T09:40:14.211Z,208.21
2023-03-31T09:41:14.158Z,208.59
2023-03-31T09:42:15.134Z,208.78
2023-03-31T09:43:14.096Z,209.48
2023-03-31T09:44:14.070Z,209.86
2023-03-31T09:45:14.048Z,211.29
2023-03-31T09:46:14.108Z,213.59
2023-03-31T09:47:14.105Z,215.54
2023-03-31T09:48:14.717Z,213.47
2023-03-31T09:49:13.926Z,216.29
2023-03-31T09:50:13.877Z,216.88
2023-03-31T09:51:13.839Z,216.83
2023-03-31T09:52:15.502Z,220.70
2023-03-31T09:53:13.778Z,218.05
2023-03-31T09:54:13.762Z,221.78
2023-03-31T09:55:13.711Z,223.75
2023-03-31T09:56:13.672Z,223.72
2023-03-31T09:57:13.740Z,226.78
2023-03-31T09:58:13.598Z,226.58
2023-03-31T09:59:13.577Z,228.19
2023-03-31T10:00:13.583Z,229.61
2023-03-31T10:01:13.564Z,230.95
2023-03-31T10:02:13.472Z,233.88
2023-03-31T10:03:13.516Z,235.46
2023-03-31T10:04:15.575Z,235.68
2023-03-31T10:05:13.381Z,236.50
2023-03-31T10:06:13.353Z,237.89
2023-03-31T10:07:13.328Z,240.41
2023-03-31T10:08:13.291Z,241.72
2023-03-31T10:09:13.264Z,241.15
2023-03-31T10:10:15.266Z,241.57
2023-03-31T10:11:13.258Z,244.32
2023-03-31T10:12:13.169Z,248.44
2023-03-31T10:13:13.193Z,243.64
2023-03-31T10:14:13.117Z,245.46
2023-03-31T10:15:13.110Z,244.54
2023-03-31T10:16:13.091Z,243.37
2023-03-31T10:17:12.998Z,245.86
2023-03-31T10:18:13.006Z,242.73
2023-03-31T10:19:12.966Z,244.46
2023-03-31T10:20:13.229Z,243.49
2023-03-31T10:21:12.958Z,244.27
2023-03-31T10:22:15.010Z,244.76
2023-03-31T10:23:12.948Z,243.84
2023-03-31T10:24:12.996Z,243.01
2023-03-31T10:25:12.980Z,244.48
2023-03-31T10:26:12.967Z,242.11
2023-03-31T10:27:12.992Z,243.98
2023-03-31T10:28:13.001Z,243.22
2023-03-31T10:29:13.069Z,242.21
2023-03-31T10:30:13.055Z,244.54
2023-03-31T10:31:13.078Z,243.39
2023-03-31T10:32:13.061Z,243.02
2023-03-31T10:33:21.990Z,242.62
2023-03-31T10:34:14.064Z,242.76
2023-03-31T10:35:13.229Z,242.48
2023-03-31T10:36:13.042Z,242.46
2023-03-31T10:37:13.005Z,241.33
2023-03-31T10:38:12.970Z,241.71
2023-03-31T10:39:12.937Z,241.20
2023-03-31T10:40:12.921Z,240.72
2023-03-31T10:41:12.906Z,238.28
2023-03-31T10:42:12.869Z,239.60
2023-03-31T10:43:12.921Z,239.35
2023-03-31T10:44:12.833Z,240.39
2023-03-31T10:45:16.301Z,237.70
2023-03-31T10:46:13.834Z,237.89
2023-03-31T10:47:12.777Z,238.12
2023-03-31T10:48:12.748Z,238.29
2023-03-31T10:49:13.726Z,238.86
2023-03-31T10:50:12.705Z,237.46
2023-03-31T10:51:14.606Z,236.13
2023-03-31T10:52:12.733Z,236.48
2023-03-31T10:53:12.641Z,234.37
2023-03-31T10:54:12.610Z,234.20
2023-03-31T10:55:12.609Z,236.64
2023-03-31T10:56:12.608Z,234.69
2023-03-31T10:57:12.689Z,235.23
2023-03-31T10:58:12.684Z,234.93
2023-03-31T10:59:12.728Z,236.58
2023-03-31T11:00:12.778Z,234.69
2023-03-31T11:01:12.897Z,233.55
2023-03-31T11:02:12.984Z,235.12
2023-03-31T11:03:13.014Z,233.39
2023-03-31T11:04:12.931Z,234.15
2023-03-31T11:05:13.066Z,233.49
2023-03-31T11:06:13.038Z,232.80
2023-03-31T11:07:13.092Z,233.24
2023-03-31T11:08:13.136Z,232.67
2023-03-31T11:09:13.163Z,232.54
2023-03-31T11:10:13.193Z,230.90
2023-03-31T11:11:13.256Z,231.30
2023-03-31T11:12:13.281Z,232.08
2023-03-31T11:13:13.320Z,231.22
2023-03-31T11:14:13.365Z,230.28
2023-03-31T11:15:13.395Z,231.45
2023-03-31T11:16:13.529Z,230.32
2023-03-31T11:17:13.496Z,230.20
2023-03-31T11:18:13.575Z,228.41
2023-03-31T11:19:13.586Z,229.52
2023-03-31T11:20:13.612Z,229.95
2023-03-31T11:21:13.648Z,229.60
2023-03-31T11:22:13.693Z,228.11
2023-03-31T11:23:13.726Z,229.07
2023-03-31T11:24:13.774Z,229.06
2023-03-31T11:25:13.832Z,227.55
2023-03-31T11:26:14.748Z,228.14
2023-03-31T11:27:13.922Z,227.83
2023-03-31T11:28:13.970Z,228.29
2023-03-31T11:29:14.001Z,227.45
2023-03-31T11:30:14.051Z,227.11
2023-03-31T11:31:14.104Z,226.69
2023-03-31T11:32:14.168Z,227.19
2023-03-31T11:33:14.236Z,226.91
2023-03-31T11:34:14.245Z,226.63
2023-03-31T11:35:14.323Z,225.42
2023-03-31T11:36:14.390Z,227.19
2023-03-31T11:37:14.382Z,225.42
2023-03-31T11:38:14.426Z,224.46
2023-03-31T11:39:14.497Z,223.35
2023-03-31T11:40:14.567Z,223.52
2023-03-31T11:41:14.649Z,225.13
2023-03-31T11:42:16.241Z,225.18
2023-03-31T11:43:14.684Z,222.67
2023-03-31T11:44:15.256Z,224.01
2023-03-31T11:45:14.775Z,223.99
2023-03-31T11:46:14.889Z,222.51
2023-03-31T11:47:14.862Z,222.22
2023-03-31T11:48:14.966Z,222.59
2023-03-31T11:49:14.948Z,222.32
2023-03-31T11:50:15.074Z,222.31
2023-03-31T11:51:15.092Z,223.07
2023-03-31T11:52:15.125Z,222.26
2023-03-31T11:53:15.171Z,222.51
2023-03-31T11:54:15.224Z,222.63
2023-03-31T11:55:15.351Z,223.18
2023-03-31T11:56:15.322Z,222.91
2023-03-31T11:57:15.438Z,222.98
2023-03-31T11:58:15.425Z,221.78
2023-03-31T11:59:15.482Z,223.54
2023-03-31T12:00:15.592Z,222.94
2023-03-31T12:01:15.573Z,223.94
2023-03-31T12:02:15.589Z,224.97
2023-03-31T12:03:15.694Z,225.38
2023-03-31T12:04:15.749Z,225.51
2023-03-31T12:05:15.689Z,225.53
2023-03-31T12:06:15.776Z,224.74
2023-03-31T12:07:15.799Z,223.79
2023-03-31T12:08:15.899Z,226.34
2023-03-31T12:09:15.915Z,226.38
2023-03-31T12:10:15.885Z,225.48
2023-03-31T12:11:15.921Z,226.13
2023-03-31T12:12:15.959Z,225.49
2023-03-31T12:13:15.980Z,226.04
2023-03-31T12:14:16.004Z,224.50
2023-03-31T12:15:16.032Z,225.16
2023-03-31T12:16:16.153Z,224.97
2023-03-31T12:17:16.086Z,224.47
2023-03-31T12:18:16.114Z,224.24
2023-03-31T12:19:16.129Z,224.33
2023-03-31T12:20:16.161Z,224.19
2023-03-31T12:21:16.160Z,223.48
2023-03-31T12:22:16.171Z,223.56
2023-03-31T12:23:16.178Z,222.84
2023-03-31T12:24:16.188Z,222.58
2023-03-31T12:25:16.203Z,222.98
2023-03-31T12:26:16.199Z,221.57
2023-03-31T12:27:16.201Z,221.47
2023-03-31T12:28:16.191Z,221.05
2023-03-31T12:29:16.186Z,220.85
2023-03-31T12:30:16.180Z,220.49
2023-03-31T12:31:16.203Z,220.22
2023-03-31T12:32:16.160Z,220.75
2023-03-31T12:33:16.164Z,220.01
2023-03-31T12:34:16.161Z,220.00
2023-03-31T12:35:16.140Z,219.49
2023-03-31T12:36:16.304Z,219.47
2023-03-31T12:37:16.131Z,218.92
2023-03-31T12:38:16.777Z,218.60
2023-03-31T12:39:16.106Z,217.40